Air Sicilia Virtual Airways - Route

Air Sicilia Virtual Airways - SIC291L

( PT ) LPHR
Horta Airport
HORTA ( HOR )
plane_to ( PT ) LPPS
Porto Santo Airport
VILA BALEIRA ( PXO )
Business Exec World Tour 2018 - LEG: 19

AIRPORT NEAR NAVIGATION AIDS

Type Name Frequency
NDB Horta 380 KHZ
NDB Horta 360 KHZ
VORTAC Horta 112700 KHZ

METAR / TAF
LPHR 211300Z 27016KT 9999 FEW012 SCT025 19/14 Q1013

RUNWAY INFORMATION

Runway Runway length Runway width Runway elevation Runway displaced threshold Runway heading
10 5233 148 81 0 90
28 5233 148 117 0 270

AIRPORT FREQUENCIES

Type Name Frequency
APP APP 119.7 MHZ
TWR TWR 118 MHZ

AIRPORT NEAR NAVIGATION AIDS

Type Name Frequency
NDB Porto Santo 338 KHZ
VOR-DME Porto Santo 114900 KHZ
TACAN Porto Santo 116300 KHZ

METAR / TAF
LPPS 211300Z 01009KT 9999 SCT015 SCT030 19/15 Q1021
LPPS 211100Z 2112/2218 01010KT 9999 SCT015 TEMPO 2112/2124 BKN012

RUNWAY INFORMATION

Runway Runway length Runway width Runway elevation Runway displaced threshold Runway heading
01 0 0 240 0 0
19 0 0 341 0 0
18 9861 148 240 0 178
36 9861 148 338 0 358

AIRPORT FREQUENCIES

Type Name Frequency
GCA GCA 123.3 MHZ
TWR TWR 118.4 MHZ

Flightplan

VSM 35N020W NIKAV

Air Sicilia Virtual Airways Fleets

AVAILABLE AIRCRAFTS for route at this time in Horta Airport
C550 - Cessna 550 Citation II
( US ) Cessna

Aircraft in fleet: 1

CL30 - BD-100 Challenger 300
( CA ) Bombardier

Aircraft in fleet: 1

LJ35 - Bombardier Learjet 35A
( CA ) Bombardier

Aircraft in fleet: 1

690 NM

Distance in nautical miles.

€ 150,00

Ticket price for this flight.

Nr. 19

Leg



12-11-2018
Aerosoft Airport Rio de Janeiro International V2.0 XP

L'Aeroporto Internazionale di Rio de Janeiro-Galeão (IATA: GIG, ICAO: SBGL), costruito nel 1952 nel quartiere di Ilha do Governador ed intitolato al musicista Antônio Carlos Jobim, è il principale aeroporto internazio ....


15-10-2018
Aerosoft A320 Family professional

La gamma di aeromobili A320 è una delle più comuni nei cieli. Questi aerei di linea a doppio-getto a corto e medio raggio si sono dimostrati convenienti, affidabili e prontamente disponibili, rendendoli le opzioni migl ....


10-10-2018
Motore critico ( Critical Engine )

Il motore critico di un velivolo ad ala fissa multi-motore è il motore che, in caso di guasto, influirebbe negativamente sulle prestazioni o sulla capacità di manovra di un aereo. Sui velivoli ad elica, vi è un ....


04-10-2018
Aerosoft Dortmund XP

Scopri il centro della regione della Ruhr su XPlane 11 - lo scenario Dortmund XP è una ricostruzione completa della città di Dortmund per il simulatore di volo targato Laminar. Oltre all'intera area urbana di Dortmu ....


07-08-2018
Aerosoft Professional Flight Planner PFPX

PFPX - Professional Flight Planner X - è un nuovo ed innovativo strumento di pianificazione del volo sviluppato da piloti e dispatcher del mondo reale. È un'aggiunta preziosa e realistica alla tua esperienza di simulaz ....